createdAt,value
2019-02-25T00:00:05.455Z,7.90
2019-02-25T00:02:34.098Z,7.90
2019-02-25T00:05:02.505Z,7.90
2019-02-25T00:07:30.948Z,7.80
2019-02-25T00:09:59.354Z,7.80
2019-02-25T00:12:27.773Z,7.80
2019-02-25T00:14:56.203Z,7.70
2019-02-25T00:17:24.619Z,7.70
2019-02-25T00:19:53.030Z,7.80
2019-02-25T00:22:21.462Z,7.80
2019-02-25T00:24:49.882Z,7.90
2019-02-25T00:27:18.297Z,7.90
2019-02-25T00:29:46.806Z,7.90
2019-02-25T00:32:15.286Z,7.90
2019-02-25T00:34:43.696Z,7.90
2019-02-25T00:37:12.203Z,8.00
2019-02-25T00:39:40.679Z,8.00
2019-02-25T00:42:09.089Z,8.10
2019-02-25T00:44:37.586Z,8.20
2019-02-25T00:47:06.071Z,8.20
2019-02-25T00:49:34.547Z,8.30
2019-02-25T00:52:03.069Z,8.40
2019-02-25T00:54:31.477Z,8.40
2019-02-25T00:56:59.904Z,8.50
2019-02-25T00:59:28.339Z,8.50
2019-02-25T01:01:56.822Z,8.50
2019-02-25T01:04:25.302Z,8.60
2019-02-25T01:06:53.811Z,8.60
2019-02-25T01:09:22.293Z,8.60
2019-02-25T01:11:50.702Z,8.70
2019-02-25T01:14:19.211Z,8.70
2019-02-25T01:16:47.627Z,8.70
2019-02-25T01:19:16.113Z,8.70
2019-02-25T01:21:44.611Z,8.70
2019-02-25T01:24:13.095Z,8.70
2019-02-25T01:26:41.530Z,8.70
2019-02-25T01:29:09.966Z,8.70
2019-02-25T01:31:38.416Z,8.70
2019-02-25T01:34:06.890Z,8.70
2019-02-25T01:36:35.331Z,8.70
2019-02-25T01:39:04.684Z,8.70
2019-02-25T01:41:33.146Z,8.70
2019-02-25T01:44:01.594Z,8.80
2019-02-25T01:46:29.995Z,8.80
2019-02-25T01:48:58.474Z,8.80
2019-02-25T01:51:26.919Z,8.70
2019-02-25T01:53:55.401Z,8.70
2019-02-25T01:56:23.809Z,8.70
2019-02-25T01:58:52.350Z,8.70
2019-02-25T02:01:20.758Z,8.70
2019-02-25T02:03:49.163Z,8.70
2019-02-25T02:06:17.694Z,8.60
2019-02-25T02:08:46.298Z,8.50
2019-02-25T02:11:14.723Z,8.50
2019-02-25T02:13:43.201Z,8.40
2019-02-25T02:16:11.634Z,8.40
2019-02-25T02:18:40.159Z,8.50
2019-02-25T02:21:08.639Z,8.50
2019-02-25T02:23:37.075Z,8.50
2019-02-25T02:26:05.599Z,8.50
2019-02-25T02:28:34.006Z,8.50
2019-02-25T02:31:02.468Z,8.50
2019-02-25T02:33:30.946Z,8.50
2019-02-25T02:35:59.354Z,8.40
2019-02-25T02:38:27.797Z,8.50
2019-02-25T02:40:56.215Z,8.50
2019-02-25T02:43:24.612Z,8.50
2019-02-25T02:45:56.355Z,8.40
2019-02-25T02:48:28.071Z,8.30
2019-02-25T02:50:56.482Z,8.20
2019-02-25T02:53:24.934Z,8.10
2019-02-25T02:55:53.411Z,8.10
2019-02-25T02:58:21.823Z,8.20
2019-02-25T03:00:50.256Z,8.20
2019-02-25T03:03:18.671Z,8.30
2019-02-25T03:05:47.146Z,8.30
2019-02-25T03:08:15.666Z,8.40
2019-02-25T03:10:44.146Z,8.40
2019-02-25T03:13:12.562Z,8.40
2019-02-25T03:15:41.088Z,8.40
2019-02-25T03:18:09.511Z,8.40
2019-02-25T03:20:37.923Z,8.40
2019-02-25T03:23:06.426Z,8.40
2019-02-25T03:25:34.842Z,8.40
2019-02-25T03:28:03.326Z,8.40
2019-02-25T03:30:31.850Z,8.40
2019-02-25T03:33:00.320Z,8.40
2019-02-25T03:35:28.730Z,8.40
2019-02-25T03:37:57.183Z,8.40
2019-02-25T03:40:25.594Z,8.30
2019-02-25T03:42:54.004Z,8.30
2019-02-25T03:45:22.482Z,8.30
2019-02-25T03:47:50.962Z,8.20
2019-02-25T03:50:19.434Z,8.20
2019-02-25T03:52:47.871Z,8.20
2019-02-25T03:55:18.880Z,8.20
2019-02-25T03:57:48.230Z,8.20
2019-02-25T04:00:24.038Z,8.20
2019-02-25T04:02:52.530Z,8.20
2019-02-25T04:05:20.940Z,8.30
2019-02-25T04:07:49.453Z,8.30
2019-02-25T04:10:17.932Z,8.30
2019-02-25T04:12:46.334Z,8.30
2019-02-25T04:15:17.951Z,8.20
2019-02-25T04:17:46.360Z,8.20
2019-02-25T04:20:17.877Z,8.30
2019-02-25T04:22:46.319Z,8.30
2019-02-25T04:25:14.735Z,8.30
2019-02-25T04:27:43.154Z,8.40
2019-02-25T04:30:13.894Z,8.30
2019-02-25T04:32:42.383Z,8.30
2019-02-25T04:35:11.858Z,8.20
2019-02-25T04:37:40.265Z,8.10
2019-02-25T04:40:13.458Z,8.20
2019-02-25T04:42:41.968Z,8.20
2019-02-25T04:45:13.014Z,8.30
2019-02-25T04:47:41.459Z,8.30
2019-02-25T04:50:11.233Z,8.40
2019-02-25T04:52:39.711Z,8.40
2019-02-25T04:55:09.968Z,8.50
2019-02-25T04:57:38.411Z,8.60
2019-02-25T05:00:12.642Z,8.70
2019-02-25T05:02:41.053Z,8.80
2019-02-25T05:05:09.815Z,8.80
2019-02-25T05:07:38.297Z,8.80
2019-02-25T05:10:09.770Z,8.80
2019-02-25T05:12:39.283Z,8.80
2019-02-25T05:15:09.304Z,8.70
2019-02-25T05:17:37.711Z,8.70
2019-02-25T05:20:07.202Z,8.70
2019-02-25T05:22:37.506Z,8.70
2019-02-25T05:25:10.793Z,8.70
2019-02-25T05:27:39.202Z,8.70
2019-02-25T05:30:15.567Z,8.70
2019-02-25T05:32:43.977Z,8.70
2019-02-25T05:35:13.519Z,8.70
2019-02-25T05:37:41.998Z,8.70
2019-02-25T05:40:20.140Z,8.70
2019-02-25T05:42:48.555Z,8.70
2019-02-25T05:45:17.041Z,8.70
2019-02-25T05:47:45.533Z,8.70
2019-02-25T05:50:16.473Z,8.70
2019-02-25T05:52:44.885Z,8.70
2019-02-25T05:55:16.699Z,8.80
2019-02-25T05:57:45.240Z,8.80
2019-02-25T06:00:18.549Z,8.80
2019-02-25T06:02:46.995Z,8.80
2019-02-25T06:05:15.398Z,8.80
2019-02-25T06:07:43.811Z,8.80
2019-02-25T06:10:13.399Z,8.70
2019-02-25T06:12:41.802Z,8.70
2019-02-25T06:15:20.824Z,8.60
2019-02-25T06:17:49.299Z,8.60
2019-02-25T06:20:17.980Z,8.60
2019-02-25T06:22:46.486Z,8.60
2019-02-25T06:25:16.075Z,8.60
2019-02-25T06:27:44.594Z,8.60
2019-02-25T06:30:20.634Z,8.50
2019-02-25T06:32:49.040Z,8.50
2019-02-25T06:35:17.448Z,8.50
2019-02-25T06:37:45.890Z,8.40
2019-02-25T06:40:18.185Z,8.40
2019-02-25T06:42:46.632Z,8.30
2019-02-25T06:45:23.749Z,8.30
2019-02-25T06:47:52.173Z,8.30
2019-02-25T06:50:20.627Z,8.20
2019-02-25T06:52:49.289Z,8.20
2019-02-25T06:55:17.705Z,8.20
2019-02-25T06:57:46.170Z,8.20
2019-02-25T07:00:16.575Z,8.10
2019-02-25T07:02:44.990Z,8.10
2019-02-25T07:05:15.035Z,8.10
2019-02-25T07:08:00.173Z,8.10
2019-02-25T07:10:42.334Z,8.10
2019-02-25T07:13:21.410Z,8.20
2019-02-25T07:16:08.087Z,8.20
2019-02-25T07:18:47.498Z,8.30
2019-02-25T07:21:18.123Z,8.40
2019-02-25T07:23:51.267Z,8.50
2019-02-25T07:26:30.575Z,8.60
2019-02-25T07:29:03.648Z,8.60
2019-02-25T07:31:36.210Z,8.70
2019-02-25T07:34:09.306Z,8.70
2019-02-25T07:36:42.247Z,8.70
2019-02-25T07:39:15.371Z,8.70
2019-02-25T07:41:57.757Z,8.70
2019-02-25T07:44:30.862Z,8.70
2019-02-25T07:47:10.039Z,8.70
2019-02-25T07:49:56.260Z,8.70
2019-02-25T07:52:32.227Z,8.80
2019-02-25T07:55:11.397Z,8.80
2019-02-25T07:57:41.523Z,8.80
2019-02-25T08:00:12.040Z,8.80
2019-02-25T08:02:47.774Z,8.70
2019-02-25T08:05:17.826Z,8.70
2019-02-25T08:07:47.879Z,8.70
2019-02-25T08:10:20.610Z,8.70
2019-02-25T08:12:50.651Z,8.80
2019-02-25T08:15:20.707Z,8.90
2019-02-25T08:17:50.786Z,8.90
2019-02-25T08:20:30.070Z,8.90
2019-02-25T08:23:12.216Z,9.00
2019-02-25T08:25:48.153Z,9.00
2019-02-25T08:28:23.854Z,9.00
2019-02-25T08:30:53.906Z,9.10
2019-02-25T08:33:26.651Z,9.20
2019-02-25T08:36:18.239Z,9.30
2019-02-25T08:38:57.594Z,9.40
2019-02-25T08:41:46.061Z,9.50
2019-02-25T08:44:30.991Z,9.50
2019-02-25T08:47:01.071Z,9.60
2019-02-25T08:49:31.183Z,9.60
2019-02-25T08:51:59.630Z,9.70
2019-02-25T08:54:28.098Z,9.70
2019-02-25T08:56:56.507Z,9.80
2019-02-25T08:59:25.013Z,9.90
2019-02-25T09:01:53.462Z,10.00
2019-02-25T09:04:21.951Z,10.10
2019-02-25T09:06:50.430Z,10.10
2019-02-25T09:09:18.878Z,10.20
2019-02-25T09:11:47.314Z,10.20
2019-02-25T09:14:15.796Z,10.10
2019-02-25T09:16:44.310Z,10.20
2019-02-25T09:19:12.844Z,10.20
2019-02-25T09:21:41.259Z,10.20
2019-02-25T09:24:09.717Z,10.20
2019-02-25T09:26:38.157Z,10.20
2019-02-25T09:29:06.671Z,10.30
2019-02-25T09:31:35.080Z,10.30
2019-02-25T09:34:03.543Z,10.30
2019-02-25T09:36:32.015Z,10.40
2019-02-25T09:39:00.430Z,10.40
2019-02-25T09:41:30.180Z,10.40
2019-02-25T09:43:58.774Z,10.40
2019-02-25T09:46:27.187Z,10.50
2019-02-25T09:48:55.706Z,10.60
2019-02-25T09:51:24.132Z,10.60
2019-02-25T09:53:52.615Z,10.60
2019-02-25T09:56:21.055Z,10.70
2019-02-25T09:58:49.571Z,10.70
2019-02-25T10:01:18.050Z,10.80
2019-02-25T10:03:46.491Z,10.90
2019-02-25T10:06:14.971Z,11.00
2019-02-25T10:08:43.390Z,11.00
2019-02-25T10:11:12.010Z,11.00
2019-02-25T10:13:40.490Z,11.10
2019-02-25T10:16:08.982Z,11.20
2019-02-25T10:18:37.431Z,11.20
2019-02-25T10:21:05.850Z,11.20
2019-02-25T10:23:34.338Z,11.20
2019-02-25T10:26:02.894Z,11.30
2019-02-25T10:28:31.310Z,11.30
2019-02-25T10:30:59.789Z,11.40
2019-02-25T10:33:28.235Z,11.40
2019-02-25T10:35:56.682Z,11.50
2019-02-25T10:38:25.158Z,11.60
2019-02-25T10:40:53.945Z,11.70
2019-02-25T10:43:22.587Z,11.80
2019-02-25T10:45:51.006Z,11.80
2019-02-25T10:48:19.978Z,11.90
2019-02-25T10:50:55.708Z,12.00
2019-02-25T10:53:20.411Z,12.10
2019-02-25T10:56:02.414Z,12.10
2019-02-25T10:58:31.719Z,12.10
2019-02-25T11:01:01.146Z,12.20
2019-02-25T11:03:29.558Z,12.20
2019-02-25T11:05:58.612Z,12.20
2019-02-25T11:08:29.030Z,12.20
2019-02-25T11:10:59.094Z,12.30
2019-02-25T11:13:29.593Z,12.40
2019-02-25T11:15:57.710Z,12.50
2019-02-25T11:18:28.218Z,12.50
2019-02-25T11:20:56.205Z,12.50
2019-02-25T11:23:24.623Z,12.60
2019-02-25T11:25:53.758Z,12.70
2019-02-25T11:28:25.903Z,12.70
2019-02-25T11:30:53.792Z,12.80
2019-02-25T11:33:23.213Z,12.90
2019-02-25T11:35:52.507Z,12.90
2019-02-25T11:38:20.954Z,13.00
2019-02-25T11:40:49.366Z,13.00
2019-02-25T11:43:18.925Z,13.10
2019-02-25T11:45:47.975Z,13.10
2019-02-25T11:48:16.382Z,13.10
2019-02-25T11:50:44.906Z,13.20
2019-02-25T11:53:13.430Z,13.20
2019-02-25T11:55:41.959Z,13.30
2019-02-25T11:58:10.395Z,13.30
2019-02-25T12:00:39.890Z,13.30
2019-02-25T12:03:08.569Z,13.40
2019-02-25T12:05:37.014Z,13.40
2019-02-25T12:08:05.431Z,13.40
2019-02-25T12:10:33.875Z,13.50
2019-02-25T12:13:02.378Z,13.50
2019-02-25T12:15:30.797Z,13.50
2019-02-25T12:17:59.303Z,13.60
2019-02-25T12:20:27.938Z,13.60
2019-02-25T12:22:56.350Z,13.60
2019-02-25T12:25:25.707Z,13.60
2019-02-25T12:27:54.145Z,13.70
2019-02-25T12:30:24.922Z,13.70
2019-02-25T12:32:53.335Z,13.70
2019-02-25T12:35:21.844Z,13.80
2019-02-25T12:37:50.278Z,13.80
2019-02-25T12:40:18.843Z,13.80
2019-02-25T12:42:47.349Z,13.90
2019-02-25T12:45:16.108Z,13.90
2019-02-25T12:47:44.586Z,13.90
2019-02-25T12:50:17.031Z,14.00
2019-02-25T12:52:45.443Z,14.00
2019-02-25T12:55:14.890Z,14.10
2019-02-25T12:57:43.427Z,14.00
2019-02-25T13:00:14.242Z,14.10
2019-02-25T13:02:42.677Z,14.10
2019-02-25T13:05:16.986Z,14.10
2019-02-25T13:07:45.482Z,14.20
2019-02-25T13:10:17.730Z,14.30
2019-02-25T13:12:46.255Z,14.30
2019-02-25T13:15:17.062Z,14.30
2019-02-25T13:17:45.507Z,14.30
2019-02-25T13:20:14.753Z,14.40
2019-02-25T13:22:43.248Z,14.40
2019-02-25T13:25:16.990Z,14.40
2019-02-25T13:27:45.415Z,14.40
2019-02-25T13:30:15.445Z,14.40
2019-02-25T13:32:43.964Z,14.40
2019-02-25T13:35:13.719Z,14.50
2019-02-25T13:37:42.227Z,14.50
2019-02-25T13:40:15.250Z,14.50
2019-02-25T13:42:43.737Z,14.60
2019-02-25T13:45:15.247Z,14.50
2019-02-25T13:47:43.759Z,14.50
2019-02-25T13:50:13.620Z,14.60
2019-02-25T13:52:47.947Z,14.60
2019-02-25T13:55:19.289Z,14.60
2019-02-25T13:57:47.766Z,14.60
2019-02-25T14:00:19.539Z,14.60
2019-02-25T14:02:47.987Z,14.60
2019-02-25T14:05:16.496Z,14.60
2019-02-25T14:07:45.603Z,14.70
2019-02-25T14:10:16.142Z,14.70
2019-02-25T14:12:44.602Z,14.70
2019-02-25T14:15:20.114Z,14.60
2019-02-25T14:17:48.525Z,14.60
2019-02-25T14:20:23.992Z,14.60
2019-02-25T14:22:52.469Z,14.60
2019-02-25T14:25:29.807Z,14.60
2019-02-25T14:27:58.418Z,14.50
2019-02-25T14:30:27.675Z,14.50
2019-02-25T14:32:56.443Z,14.40
2019-02-25T14:35:34.215Z,14.40
2019-02-25T14:38:08.146Z,14.40
2019-02-25T14:40:39.412Z,14.30
2019-02-25T14:43:05.991Z,14.30
2019-02-25T14:45:34.722Z,14.30
2019-02-25T14:48:05.349Z,14.30
2019-02-25T14:50:33.407Z,14.20
2019-02-25T14:53:03.984Z,14.30
2019-02-25T14:55:32.034Z,14.30
2019-02-25T14:58:04.454Z,14.40
2019-02-25T15:00:32.805Z,14.50
2019-02-25T15:03:00.677Z,14.40
2019-02-25T15:05:29.159Z,14.40
2019-02-25T15:07:57.871Z,14.40
2019-02-25T15:10:29.113Z,14.30
2019-02-25T15:12:58.761Z,14.30
2019-02-25T15:15:26.671Z,14.40
2019-02-25T15:17:55.206Z,14.30
2019-02-25T15:20:25.612Z,14.30
2019-02-25T15:22:53.752Z,14.30
2019-02-25T15:25:22.274Z,14.30
2019-02-25T15:27:50.758Z,14.30
2019-02-25T15:30:30.842Z,14.30
2019-02-25T15:33:00.102Z,14.30
2019-02-25T15:35:32.307Z,14.20
2019-02-25T15:38:00.490Z,14.20
2019-02-25T15:40:29.214Z,14.10
2019-02-25T15:43:02.527Z,14.10
2019-02-25T15:45:33.447Z,14.10
2019-02-25T15:48:02.955Z,14.20
2019-02-25T15:50:31.372Z,14.10
2019-02-25T15:53:02.565Z,14.10
2019-02-25T15:55:30.386Z,14.10
2019-02-25T15:57:58.884Z,14.10
2019-02-25T16:00:30.009Z,14.00
2019-02-25T16:02:58.862Z,14.00
2019-02-25T16:05:29.585Z,13.90
2019-02-25T16:07:59.966Z,13.90
2019-02-25T16:10:28.478Z,13.90
2019-02-25T16:12:57.874Z,13.90
2019-02-25T16:15:27.000Z,13.90
2019-02-25T16:17:55.475Z,13.80
2019-02-25T16:20:25.290Z,13.70
2019-02-25T16:22:56.294Z,13.70
2019-02-25T16:25:27.082Z,13.60
2019-02-25T16:27:55.437Z,13.60
2019-02-25T16:30:25.693Z,13.50
2019-02-25T16:32:54.004Z,13.50
2019-02-25T16:35:22.427Z,13.40
2019-02-25T16:37:53.109Z,13.30
2019-02-25T16:40:24.435Z,13.30
2019-02-25T16:42:54.906Z,13.20
2019-02-25T16:45:22.918Z,13.10
2019-02-25T16:47:51.443Z,13.10
2019-02-25T16:50:21.099Z,13.10
2019-02-25T16:52:50.614Z,13.00
2019-02-25T16:55:22.665Z,13.00
2019-02-25T16:57:52.066Z,13.00
2019-02-25T17:00:29.380Z,12.90
2019-02-25T17:02:59.289Z,12.90
2019-02-25T17:05:26.026Z,12.80
2019-02-25T17:07:56.052Z,12.80
2019-02-25T17:10:27.093Z,12.70
2019-02-25T17:12:55.937Z,12.60
2019-02-25T17:15:26.359Z,12.60
2019-02-25T17:17:58.414Z,12.50
2019-02-25T17:20:27.843Z,12.50
2019-02-25T17:22:55.134Z,12.40
2019-02-25T17:25:26.832Z,12.40
2019-02-25T17:27:53.708Z,12.40
2019-02-25T17:30:26.434Z,12.30
2019-02-25T17:32:54.951Z,12.30
2019-02-25T17:35:26.584Z,12.20
2019-02-25T17:37:56.265Z,12.10
2019-02-25T17:40:24.730Z,12.10
2019-02-25T17:42:54.550Z,12.00
2019-02-25T17:45:27.687Z,12.10
2019-02-25T17:47:58.440Z,12.00
2019-02-25T17:50:26.395Z,12.00
2019-02-25T17:52:54.850Z,12.00
2019-02-25T17:55:27.228Z,12.00
2019-02-25T17:57:56.530Z,12.00
2019-02-25T18:00:31.951Z,12.00
2019-02-25T18:03:01.437Z,12.00
2019-02-25T18:05:31.793Z,12.00
2019-02-25T18:08:02.972Z,11.90
2019-02-25T18:10:31.508Z,12.00
2019-02-25T18:13:01.608Z,11.90
2019-02-25T18:15:32.830Z,11.80
2019-02-25T18:18:01.464Z,11.90
2019-02-25T18:20:29.941Z,11.90
2019-02-25T18:22:58.758Z,11.90
2019-02-25T18:25:27.240Z,11.90
2019-02-25T18:27:55.726Z,11.90
2019-02-25T18:30:30.121Z,11.80
2019-02-25T18:33:00.977Z,11.80
2019-02-25T18:35:29.047Z,11.90
2019-02-25T18:37:58.622Z,11.90
2019-02-25T18:40:28.103Z,11.90
2019-02-25T18:42:58.205Z,11.90
2019-02-25T18:45:26.695Z,11.90
2019-02-25T18:47:55.144Z,11.80
2019-02-25T18:50:24.722Z,11.80
2019-02-25T18:52:56.723Z,11.70
2019-02-25T18:55:27.117Z,11.70
2019-02-25T18:57:56.331Z,11.80
2019-02-25T19:00:41.931Z,11.70
2019-02-25T19:03:09.909Z,11.80
2019-02-25T19:05:38.360Z,11.80
2019-02-25T19:08:14.923Z,11.80
2019-02-25T19:10:46.080Z,11.90
2019-02-25T19:13:15.968Z,11.90
2019-02-25T19:15:44.393Z,11.90
2019-02-25T19:18:13.793Z,12.00
2019-02-25T19:20:44.022Z,12.00
2019-02-25T19:23:13.920Z,12.10
2019-02-25T19:25:43.296Z,12.00
2019-02-25T19:28:16.576Z,12.00
2019-02-25T19:30:42.186Z,11.90
2019-02-25T19:33:11.509Z,11.90
2019-02-25T19:35:40.865Z,11.90
2019-02-25T19:38:10.371Z,11.80
2019-02-25T19:40:40.850Z,11.70
2019-02-25T19:43:10.210Z,11.60
2019-02-25T19:45:40.309Z,11.60
2019-02-25T19:48:08.791Z,11.50
2019-02-25T19:50:49.871Z,11.40
2019-02-25T19:53:09.537Z,11.30
2019-02-25T19:55:40.442Z,11.30
2019-02-25T19:58:07.756Z,11.30
2019-02-25T20:00:36.244Z,11.30
2019-02-25T20:03:06.160Z,11.20
2019-02-25T20:05:38.919Z,11.20
2019-02-25T20:08:05.289Z,11.10
2019-02-25T20:10:34.135Z,11.00
2019-02-25T20:13:05.662Z,10.90
2019-02-25T20:15:33.052Z,10.90
2019-02-25T20:18:01.561Z,10.80
2019-02-25T20:20:33.627Z,10.80
2019-02-25T20:23:03.860Z,11.00
2019-02-25T20:25:32.023Z,11.00
2019-02-25T20:28:02.184Z,11.10
2019-02-25T20:30:30.659Z,11.10
2019-02-25T20:33:00.799Z,11.00
2019-02-25T20:35:31.215Z,11.00
2019-02-25T20:38:00.390Z,10.90
2019-02-25T20:40:30.606Z,10.90
2019-02-25T20:43:00.965Z,10.90
2019-02-25T20:45:33.197Z,10.90
2019-02-25T20:48:03.384Z,10.80
2019-02-25T20:50:31.848Z,10.80
2019-02-25T20:53:05.049Z,10.80
2019-02-25T20:55:31.599Z,10.80
2019-02-25T20:58:00.619Z,10.70
2019-02-25T21:00:29.112Z,10.70
2019-02-25T21:02:57.558Z,10.70
2019-02-25T21:05:27.387Z,10.70
2019-02-25T21:07:57.942Z,10.70
2019-02-25T21:10:27.899Z,10.60
2019-02-25T21:12:57.178Z,10.60
2019-02-25T21:15:26.268Z,10.60
2019-02-25T21:17:56.832Z,10.50
2019-02-25T21:20:26.076Z,10.50
2019-02-25T21:22:57.681Z,10.50
2019-02-25T21:25:26.860Z,10.50
2019-02-25T21:27:59.029Z,10.50
2019-02-25T21:30:27.121Z,10.50
2019-02-25T21:32:57.159Z,10.50
2019-02-25T21:35:27.799Z,10.40
2019-02-25T21:37:55.765Z,10.40
2019-02-25T21:40:27.126Z,10.40
2019-02-25T21:42:56.686Z,10.30
2019-02-25T21:45:27.099Z,10.30
2019-02-25T21:47:56.540Z,10.30
2019-02-25T21:50:28.417Z,10.30
2019-02-25T21:52:55.348Z,10.20
2019-02-25T21:55:25.658Z,10.20
2019-02-25T21:57:54.904Z,10.10
2019-02-25T22:00:27.017Z,10.10
2019-02-25T22:02:55.635Z,10.10
2019-02-25T22:05:24.142Z,10.00
2019-02-25T22:07:54.753Z,9.90
2019-02-25T22:10:22.705Z,10.00
2019-02-25T22:12:51.137Z,9.90
2019-02-25T22:15:22.136Z,9.90
2019-02-25T22:17:50.695Z,9.90
2019-02-25T22:20:22.506Z,10.00
2019-02-25T22:22:54.598Z,10.00
2019-02-25T22:25:21.666Z,10.00
2019-02-25T22:27:50.168Z,10.10
2019-02-25T22:30:18.716Z,10.10
2019-02-25T22:32:47.160Z,10.10
2019-02-25T22:35:15.570Z,10.10
2019-02-25T22:37:46.804Z,10.10
2019-02-25T22:40:16.892Z,10.10
2019-02-25T22:42:47.131Z,10.10
2019-02-25T22:45:23.235Z,10.10
2019-02-25T22:47:51.732Z,10.10
2019-02-25T22:50:20.148Z,10.00
2019-02-25T22:52:51.622Z,10.00
2019-02-25T22:55:20.774Z,9.90
2019-02-25T22:57:51.186Z,9.90
2019-02-25T23:00:27.407Z,9.90
2019-02-25T23:02:56.839Z,9.90
2019-02-25T23:05:25.734Z,9.90
2019-02-25T23:07:54.686Z,9.90
2019-02-25T23:10:24.173Z,9.90
2019-02-25T23:12:53.009Z,9.80
2019-02-25T23:15:23.324Z,9.70
2019-02-25T23:17:51.642Z,9.60
2019-02-25T23:20:20.107Z,9.60
2019-02-25T23:22:48.620Z,9.60
2019-02-25T23:25:17.030Z,9.60
2019-02-25T23:27:45.444Z,9.60
2019-02-25T23:30:14.818Z,9.60
2019-02-25T23:32:43.244Z,9.50
2019-02-25T23:35:13.786Z,9.50
2019-02-25T23:37:45.100Z,9.40
2019-02-25T23:40:14.347Z,9.30
2019-02-25T23:42:44.317Z,9.20
2019-02-25T23:45:15.521Z,9.30
2019-02-25T23:47:43.960Z,9.30
2019-02-25T23:50:14.471Z,9.20
2019-02-25T23:52:42.910Z,9.20
2019-02-25T23:55:16.486Z,9.10
2019-02-25T23:57:44.415Z,9.00
